Time;durP1;ratioP1;P1;durP2;ratioP2;P2;SDS_P1;SDS_P2;PMS_P1;PMS_P2;Temp;Humidity;BMP_temperature;BMP_pressure;BME280_temperature;BME280_humidity;BME280_pressure;Samples;Min_cycle;Max_cycle;Signal;HPM_P1;HPM_P2
2023/07/31 00:00:27;;;;;;;14.95;13.55;;;25.70;92.80;;;;;;4927050;29;20125;-81
2023/07/31 00:02:54;;;;;;;18.97;14.10;;;25.70;92.90;;;;;;4953204;29;20055;-80
2023/07/31 00:05:21;;;;;;;14.32;12.93;;;25.70;92.90;;;;;;4957450;29;20267;-80
2023/07/31 00:07:47;;;;;;;14.35;13.00;;;25.70;93.00;;;;;;4954183;28;20024;-81
2023/07/31 00:10:13;;;;;;;12.23;11.02;;;25.70;93.10;;;;;;4941483;29;20032;-80
2023/07/31 00:12:40;;;;;;;12.53;11.23;;;25.70;93.00;;;;;;4949851;29;20037;-81
2023/07/31 00:15:07;;;;;;;12.77;11.50;;;25.70;93.20;;;;;;4960518;28;20358;-81
2023/07/31 00:17:33;;;;;;;;;;;25.70;93.10;;;;;;4948102;28;20049;-81
2023/07/31 00:19:59;;;;;;;11.05;9.88;;;25.60;92.70;;;;;;4987351;23;20465;-80
2023/07/31 00:22:25;;;;;;;12.20;10.87;;;25.60;93.00;;;;;;4934618;29;20035;-79
2023/07/31 00:24:51;;;;;;;11.97;10.73;;;25.60;93.00;;;;;;4936580;29;20040;-79
2023/07/31 00:27:17;;;;;;;11.05;9.95;;;25.60;93.00;;;;;;4934890;29;20043;-79
2023/07/31 00:29:43;;;;;;;11.27;9.53;;;25.50;93.30;;;;;;4932877;29;20036;-79
2023/07/31 00:32:09;;;;;;;10.00;9.00;;;25.50;93.30;;;;;;4914956;29;20091;-79
2023/07/31 00:34:37;;;;;;;9.90;9.05;;;25.50;93.30;;;;;;4917297;29;20032;-80
2023/07/31 00:37:03;;;;;;;10.10;9.20;;;25.50;93.40;;;;;;4913026;29;20068;-80
2023/07/31 00:39:30;;;;;;;10.32;8.50;;;25.50;93.30;;;;;;4898240;29;20060;-80
2023/07/31 00:41:56;;;;;;;10.48;8.77;;;25.50;93.10;;;;;;4912222;29;20033;-80
2023/07/31 00:44:22;;;;;;;9.40;8.50;;;25.50;93.20;;;;;;4897127;29;20037;-80
2023/07/31 00:46:48;;;;;;;11.77;8.77;;;25.50;93.20;;;;;;4912831;29;20029;-80
2023/07/31 00:49:15;;;;;;;8.82;8.02;;;25.50;93.20;;;;;;4912732;29;20040;-80
2023/07/31 00:51:41;;;;;;;8.48;7.75;;;25.50;93.30;;;;;;4912682;29;20039;-79
2023/07/31 00:54:07;;;;;;;8.93;8.13;;;25.50;93.30;;;;;;4934930;29;20031;-80
2023/07/31 00:56:33;;;;;;;8.88;7.97;;;25.50;93.00;;;;;;4936250;29;20054;-80
2023/07/31 00:59:00;;;;;;;9.88;8.88;;;25.50;93.10;;;;;;4922463;29;20031;-80
2023/07/31 01:01:26;;;;;;;9.60;8.57;;;25.50;93.20;;;;;;4916880;29;20427;-80
2023/07/31 01:03:55;;;;;;;10.53;8.40;;;25.50;93.30;;;;;;4925205;29;20035;-80
2023/07/31 01:06:40;;;;;;;8.88;7.93;;;25.50;93.50;;;;;;4906985;29;20032;-80
2023/07/31 01:09:21;;;;;;;11.10;8.18;;;25.40;92.80;;;;;;4906368;29;20027;-80
2023/07/31 01:11:53;;;;;;;8.68;7.90;;;25.50;92.20;;;;;;4922567;29;20057;-80
2023/07/31 01:14:19;;;;;;;8.35;7.65;;;25.40;93.80;;;;;;4909740;29;20062;-80
2023/07/31 01:16:44;;;;;;;8.00;6.67;;;25.40;93.40;;;;;;4915979;29;20059;-81
2023/07/31 01:19:13;;;;;;;7.75;6.97;;;25.40;93.40;;;;;;4932661;29;20537;-80
2023/07/31 01:21:56;;;;;;;7.43;6.80;;;25.40;93.50;;;;;;4915023;29;20037;-79
2023/07/31 01:24:41;;;;;;;8.80;7.25;;;25.40;93.20;;;;;;4899084;29;20028;-80
2023/07/31 01:27:17;;;;;;;7.60;6.85;;;25.40;92.20;;;;;;4928835;29;20034;-80
2023/07/31 01:30:10;;;;;;;7.70;6.93;;;25.40;92.30;;;;;;4916954;29;20051;-80
2023/07/31 01:32:40;;;;;;;8.30;7.50;;;25.40;92.90;;;;;;4900727;29;20126;-80
2023/07/31 01:35:07;;;;;;;12.27;8.25;;;25.40;93.00;;;;;;4900140;29;20119;-80
2023/07/31 01:37:33;;;;;;;9.88;7.43;;;25.40;93.10;;;;;;4915987;29;20036;-80
2023/07/31 01:39:58;;;;;;;7.33;6.70;;;25.30;93.20;;;;;;4899726;29;20024;-80
2023/07/31 01:42:24;;;;;;;9.73;7.83;;;25.30;93.10;;;;;;4916722;29;20032;-80
2023/07/31 01:44:50;;;;;;;8.63;7.20;;;25.20;93.20;;;;;;4904361;29;20035;-80
2023/07/31 01:47:16;;;;;;;8.20;7.40;;;25.20;93.30;;;;;;4903907;29;20032;-80
2023/07/31 01:49:42;;;;;;;12.10;7.20;;;25.10;93.40;;;;;;4919621;29;20035;-81
2023/07/31 01:52:08;;;;;;;8.07;7.37;;;25.10;93.60;;;;;;4918780;29;20032;-81
2023/07/31 01:54:34;;;;;;;8.40;7.60;;;25.10;93.50;;;;;;4919680;29;20028;-81
2023/07/31 01:56:59;;;;;;;7.80;7.10;;;25.00;93.50;;;;;;4919054;29;20083;-80
2023/07/31 01:59:25;;;;;;;8.33;7.53;;;25.00;93.50;;;;;;4919154;29;20171;-80
2023/07/31 02:01:51;;;;;;;8.77;7.93;;;25.00;93.70;;;;;;4935456;29;20031;-80
2023/07/31 02:04:17;;;;;;;8.27;7.57;;;25.00;93.70;;;;;;4938104;29;20388;-80
2023/07/31 02:06:43;;;;;;;8.63;7.73;;;25.00;93.50;;;;;;4929343;29;20079;-80
2023/07/31 02:09:09;;;;;;;8.95;8.07;;;24.90;93.50;;;;;;4911316;29;20527;-80
2023/07/31 02:11:35;;;;;;;10.47;7.87;;;24.90;93.60;;;;;;4921331;29;20032;-80
2023/07/31 02:14:01;;;;;;;9.43;8.53;;;24.90;93.60;;;;;;4927247;29;20434;-80
2023/07/31 02:16:27;;;;;;;10.03;9.03;;;24.80;93.60;;;;;;4919968;29;20059;-80
2023/07/31 02:18:52;;;;;;;9.00;8.20;;;24.90;93.70;;;;;;4937945;29;20031;-81
2023/07/31 02:21:18;;;;;;;8.77;7.90;;;24.90;93.80;;;;;;4924730;29;20036;-80
2023/07/31 02:23:44;;;;;;;9.50;8.60;;;24.90;93.70;;;;;;4927089;29;20164;-81
2023/07/31 02:26:10;;;;;;;8.85;7.93;;;24.80;93.60;;;;;;4930858;29;20525;-80
2023/07/31 02:28:37;;;;;;;9.50;8.47;;;24.80;93.50;;;;;;4926765;29;20088;-80
2023/07/31 02:31:03;;;;;;;8.73;7.82;;;24.80;93.40;;;;;;4936984;29;20087;-81
2023/07/31 02:33:29;;;;;;;9.47;7.93;;;24.80;93.50;;;;;;4923348;29;20036;-81
2023/07/31 02:35:55;;;;;;;8.57;7.77;;;24.70;93.60;;;;;;4926216;29;20035;-80
2023/07/31 02:38:22;;;;;;;9.57;8.73;;;24.70;93.40;;;;;;4924047;29;20055;-80
2023/07/31 02:40:48;;;;;;;10.75;9.63;;;24.70;93.40;;;;;;4934886;29;20038;-80
2023/07/31 02:43:14;;;;;;;9.50;8.60;;;24.70;93.60;;;;;;4934090;29;20035;-80
2023/07/31 02:45:39;;;;;;;10.60;9.20;;;24.70;93.40;;;;;;4928721;29;20430;-80
2023/07/31 02:48:05;;;;;;;10.80;9.70;;;24.70;93.50;;;;;;4926728;29;20506;-80
2023/07/31 02:50:32;;;;;;;9.17;8.33;;;24.60;93.60;;;;;;4918940;29;20059;-81
2023/07/31 02:52:58;;;;;;;9.70;8.77;;;24.60;93.70;;;;;;4937842;29;20030;-81
2023/07/31 02:55:24;;;;;;;11.27;10.27;;;24.60;93.70;;;;;;4925472;29;20028;-80
2023/07/31 02:57:52;;;;;;;10.17;9.27;;;24.60;93.70;;;;;;4925449;29;20024;-80
2023/07/31 03:00:17;;;;;;;9.82;9.02;;;24.60;93.90;;;;;;4935750;29;20057;-81
2023/07/31 03:02:43;;;;;;;10.30;9.40;;;24.60;93.90;;;;;;4921235;29;20047;-80
2023/07/31 03:05:09;;;;;;;10.90;9.90;;;24.60;93.80;;;;;;4928985;29;20019;-80
2023/07/31 03:07:35;;;;;;;12.25;10.43;;;24.60;93.80;;;;;;4931043;29;20031;-80
2023/07/31 03:10:01;;;;;;;11.10;10.07;;;24.50;93.80;;;;;;4933679;29;20032;-81
2023/07/31 03:12:28;;;;;;;10.75;9.70;;;24.50;93.90;;;;;;4923389;29;20039;-81
2023/07/31 03:14:53;;;;;;;11.00;10.07;;;24.50;94.00;;;;;;4928103;29;20020;-80
2023/07/31 03:17:19;;;;;;;10.97;10.03;;;24.50;94.10;;;;;;4930896;29;20434;-80
2023/07/31 03:19:45;;;;;;;10.80;9.77;;;24.50;94.20;;;;;;4925851;29;20115;-80
2023/07/31 03:22:11;;;;;;;12.57;11.37;;;24.40;94.30;;;;;;4904008;29;20036;-80
2023/07/31 03:24:37;;;;;;;11.87;10.73;;;24.50;94.30;;;;;;4925582;29;20398;-80
2023/07/31 03:27:03;;;;;;;11.23;10.23;;;24.50;94.30;;;;;;4924039;29;20123;-80
2023/07/31 03:29:29;;;;;;;11.13;10.02;;;24.40;94.10;;;;;;4920882;29;20329;-80
2023/07/31 03:31:55;;;;;;;12.67;10.90;;;24.40;94.20;;;;;;4921144;29;20487;-80
2023/07/31 03:34:21;;;;;;;10.27;9.40;;;24.30;94.20;;;;;;4933971;29;20032;-80
2023/07/31 03:36:46;;;;;;;11.33;10.33;;;24.40;94.20;;;;;;4923876;29;20118;-80
2023/07/31 03:39:13;;;;;;;11.03;9.87;;;24.30;94.20;;;;;;4928570;29;20055;-81
2023/07/31 03:41:38;;;;;;;12.13;11.02;;;24.30;94.20;;;;;;4928256;29;20031;-80
2023/07/31 03:44:04;;;;;;;10.87;9.87;;;24.30;94.40;;;;;;4919457;29;20032;-80
2023/07/31 03:46:30;;;;;;;12.50;11.25;;;24.20;94.40;;;;;;4925079;29;20035;-79
2023/07/31 03:48:56;;;;;;;11.60;10.57;;;24.20;94.90;;;;;;4929989;29;20023;-78
2023/07/31 03:51:22;;;;;;;11.93;10.73;;;24.20;94.70;;;;;;4931609;29;20039;-80
2023/07/31 03:53:48;;;;;;;12.67;11.47;;;24.20;94.70;;;;;;4921575;29;20539;-81
2023/07/31 03:56:14;;;;;;;12.07;10.97;;;24.20;94.90;;;;;;4900434;29;20028;-81
2023/07/31 03:58:40;;;;;;;13.13;11.97;;;24.10;95.00;;;;;;4932309;29;20130;-81
2023/07/31 04:01:05;;;;;;;13.43;12.13;;;24.10;95.00;;;;;;4936935;29;20024;-80
2023/07/31 04:03:31;;;;;;;13.27;12.00;;;24.20;95.20;;;;;;4942915;29;20032;-80
2023/07/31 04:05:57;;;;;;;14.03;12.57;;;24.20;95.10;;;;;;4921280;29;20079;-81
2023/07/31 04:08:23;;;;;;;12.80;11.57;;;24.20;95.00;;;;;;4929758;29;20035;-82
2023/07/31 04:10:50;;;;;;;12.02;10.93;;;24.20;94.90;;;;;;4921861;29;20035;-80
2023/07/31 04:13:15;;;;;;;12.90;11.52;;;24.20;94.90;;;;;;4924432;29;20079;-80
2023/07/31 04:15:42;;;;;;;12.90;11.77;;;24.20;94.90;;;;;;4938473;29;20028;-80
2023/07/31 04:18:08;;;;;;;12.13;11.02;;;24.20;95.00;;;;;;4925556;29;20047;-80
2023/07/31 04:20:33;;;;;;;13.63;12.43;;;24.20;94.80;;;;;;4930052;29;20067;-81
2023/07/31 04:22:59;;;;;;;13.27;12.07;;;24.20;94.90;;;;;;4924069;29;20399;-80
2023/07/31 04:25:25;;;;;;;13.17;12.07;;;24.20;95.00;;;;;;4936748;29;20032;-81
2023/07/31 04:27:51;;;;;;;13.20;12.00;;;24.20;95.00;;;;;;4926003;29;20035;-80
2023/07/31 04:30:17;;;;;;;12.23;11.13;;;24.20;94.90;;;;;;4921588;29;20487;-81
2023/07/31 04:32:42;;;;;;;13.50;12.20;;;24.20;94.70;;;;;;4935308;29;20036;-82
2023/07/31 04:35:08;;;;;;;13.63;12.23;;;24.30;94.50;;;;;;4924256;29;20031;-81
2023/07/31 04:37:34;;;;;;;13.40;12.10;;;24.30;94.80;;;;;;4927680;29;20044;-80
2023/07/31 04:40:00;;;;;;;14.67;11.60;;;24.30;94.60;;;;;;4903049;29;20040;-80
2023/07/31 04:42:26;;;;;;;13.13;11.93;;;24.20;94.70;;;;;;4931590;29;20035;-80
2023/07/31 04:44:53;;;;;;;13.97;12.67;;;24.20;94.70;;;;;;4920982;29;20071;-80
2023/07/31 04:47:19;;;;;;;14.07;12.60;;;24.30;94.80;;;;;;4938119;29;20044;-81
2023/07/31 04:49:45;;;;;;;14.13;11.85;;;24.30;94.90;;;;;;4929753;29;20060;-80
2023/07/31 04:52:11;;;;;;;12.47;11.17;;;24.30;95.00;;;;;;4909889;29;20070;-81
2023/07/31 04:54:36;;;;;;;12.93;11.00;;;24.30;95.00;;;;;;4939040;29;20063;-80
2023/07/31 04:57:02;;;;;;;12.20;11.10;;;24.40;94.80;;;;;;4922851;29;20107;-80
2023/07/31 04:59:28;;;;;;;11.97;10.87;;;24.50;94.70;;;;;;4931615;29;20040;-81
2023/07/31 05:01:54;;;;;;;12.13;11.03;;;24.60;94.50;;;;;;4919379;29;20276;-80
2023/07/31 05:04:20;;;;;;;11.53;10.53;;;24.70;94.20;;;;;;4919877;29;20032;-80
2023/07/31 05:06:46;;;;;;;11.93;10.73;;;24.80;94.10;;;;;;4934453;29;20043;-80
2023/07/31 05:09:12;;;;;;;12.10;10.87;;;24.90;94.10;;;;;;4939207;29;20128;-81
2023/07/31 05:11:38;;;;;;;12.00;10.90;;;24.90;93.80;;;;;;4909177;29;20036;-81
2023/07/31 05:14:05;;;;;;;11.15;10.15;;;24.90;93.70;;;;;;4919419;29;20048;-80
2023/07/31 05:16:31;;;;;;;10.03;9.23;;;25.00;93.70;;;;;;4933373;29;20111;-81
2023/07/31 05:18:56;;;;;;;15.13;10.00;;;25.00;93.50;;;;;;4929711;29;20031;-80
2023/07/31 05:21:22;;;;;;;13.10;10.97;;;25.10;93.60;;;;;;4929113;29;20043;-80
2023/07/31 05:23:49;;;;;;;10.83;9.83;;;25.10;93.40;;;;;;4922607;29;20131;-81
2023/07/31 05:26:15;;;;;;;10.63;9.63;;;25.10;93.20;;;;;;4923807;29;20056;-81
2023/07/31 05:28:40;;;;;;;10.23;9.33;;;25.10;93.10;;;;;;4921773;29;20581;-82
2023/07/31 05:31:07;;;;;;;11.40;10.40;;;25.20;93.00;;;;;;4920707;29;20443;-83
2023/07/31 05:33:33;;;;;;;10.90;8.90;;;25.20;92.90;;;;;;4919136;29;20055;-83
2023/07/31 05:35:59;;;;;;;11.03;9.83;;;25.30;92.90;;;;;;4903251;29;20488;-83
2023/07/31 05:38:25;;;;;;;;;;;25.40;92.70;;;;;;4916392;29;20028;-83
2023/07/31 05:40:51;;;;;;;10.73;9.82;;;25.50;92.60;;;;;;4915387;29;19912;-83
2023/07/31 05:43:17;;;;;;;11.60;10.43;;;25.60;92.60;;;;;;4901073;29;20028;-82
2023/07/31 05:45:43;;;;;;;10.57;9.67;;;25.60;92.30;;;;;;4932557;29;20079;-83
2023/07/31 05:48:09;;;;;;;9.77;8.90;;;25.70;92.10;;;;;;4919544;29;20827;-81
2023/07/31 05:50:35;;;;;;;9.73;8.93;;;25.80;92.00;;;;;;4938402;29;20111;-84
2023/07/31 05:53:00;;;;;;;10.40;9.50;;;25.80;92.10;;;;;;4938715;29;20098;-81
2023/07/31 05:55:26;;;;;;;9.80;8.93;;;25.90;91.90;;;;;;4919591;29;20107;-81
2023/07/31 05:57:53;;;;;;;10.23;9.30;;;25.90;92.00;;;;;;4918551;29;20036;-82
2023/07/31 06:00:19;;;;;;;11.23;10.02;;;25.90;92.00;;;;;;4929462;29;20283;-81
2023/07/31 06:02:45;;;;;;;11.90;9.67;;;26.00;91.90;;;;;;4937387;29;20036;-82
2023/07/31 06:05:10;;;;;;;11.57;10.37;;;25.90;91.80;;;;;;4937119;29;20455;-81
2023/07/31 06:07:36;;;;;;;19.23;10.37;;;25.90;92.00;;;;;;4918751;29;20502;-82
2023/07/31 06:10:05;;;;;;;16.37;10.60;;;25.90;92.00;;;;;;4920405;29;20032;-82
2023/07/31 06:12:32;;;;;;;11.35;10.25;;;25.90;92.00;;;;;;4899369;29;20037;-83
2023/07/31 06:14:58;;;;;;;11.80;10.60;;;26.00;92.10;;;;;;4927496;29;20032;-83
2023/07/31 06:17:25;;;;;;;12.00;9.97;;;26.00;91.80;;;;;;4938350;29;20035;-82
2023/07/31 06:19:52;;;;;;;12.40;11.25;;;26.00;91.80;;;;;;4937471;29;20398;-82
2023/07/31 06:22:18;;;;;;;14.30;12.02;;;26.00;92.00;;;;;;4983999;23;20107;-82
2023/07/31 06:24:44;;;;;;;11.93;10.73;;;26.00;91.90;;;;;;4938563;29;20115;-83
2023/07/31 06:27:11;;;;;;;12.57;11.38;;;26.00;91.70;;;;;;4943151;29;20024;-83
2023/07/31 06:29:37;;;;;;;11.63;10.63;;;26.10;91.90;;;;;;4931218;29;20113;-82
2023/07/31 06:32:03;;;;;;;13.35;11.20;;;26.20;91.80;;;;;;4952654;28;20089;-83
2023/07/31 06:34:29;;;;;;;15.52;10.77;;;26.20;91.70;;;;;;4945250;29;20031;-82
2023/07/31 06:36:56;;;;;;;11.40;10.30;;;26.30;91.80;;;;;;4949205;29;20042;-83
2023/07/31 06:39:22;;;;;;;10.40;9.07;;;26.30;91.60;;;;;;4930395;29;20032;-84
2023/07/31 06:41:48;;;;;;;10.93;8.77;;;26.40;91.30;;;;;;4939287;29;20027;-83
2023/07/31 06:44:14;;;;;;;10.37;9.27;;;26.50;91.30;;;;;;4937010;29;20059;-85
2023/07/31 06:46:40;;;;;;;10.47;9.47;;;26.60;90.90;;;;;;4952835;28;20035;-84
2023/07/31 06:49:06;;;;;;;12.07;9.57;;;26.60;90.70;;;;;;4919004;29;20032;-84
2023/07/31 06:51:32;;;;;;;8.80;8.07;;;26.60;90.60;;;;;;4922559;29;20422;-83
2023/07/31 06:53:58;;;;;;;10.93;8.13;;;26.70;90.30;;;;;;4935740;29;20084;-83
2023/07/31 06:56:24;;;;;;;9.82;7.82;;;26.80;89.60;;;;;;4932032;29;20028;-84
2023/07/31 06:58:49;;;;;;;8.50;7.70;;;26.90;88.80;;;;;;4944256;29;20023;-86
2023/07/31 07:01:15;;;;;;;8.43;7.57;;;27.00;87.90;;;;;;4941599;29;20115;-85
2023/07/31 07:03:41;;;;;;;8.57;7.53;;;27.10;86.90;;;;;;4936600;29;20038;-84
2023/07/31 07:06:07;;;;;;;8.10;7.30;;;27.20;85.70;;;;;;4934237;29;20323;-85
2023/07/31 07:08:33;;;;;;;9.20;8.50;;;27.30;85.50;;;;;;4933022;29;20036;-84
2023/07/31 07:10:59;;;;;;;9.73;8.83;;;27.30;85.10;;;;;;4933584;29;20069;-83
2023/07/31 07:13:25;;;;;;;8.95;8.05;;;27.40;84.90;;;;;;4944931;29;20055;-84
2023/07/31 07:15:51;;;;;;;9.43;8.47;;;27.50;84.10;;;;;;4948187;29;20031;-84
2023/07/31 07:18:18;;;;;;;10.70;8.57;;;27.60;84.60;;;;;;4956013;29;20402;-83
2023/07/31 07:20:51;;;;;;;20.85;12.05;;;27.60;84.50;;;;;;4957649;28;20027;-81
2023/07/31 07:23:17;;;;;;;10.77;9.68;;;27.60;83.70;;;;;;4940965;28;20035;-83
2023/07/31 07:25:43;;;;;;;10.27;9.17;;;27.60;84.80;;;;;;4919763;29;20039;-83
2023/07/31 07:28:10;;;;;;;54.03;15.43;;;27.60;84.00;;;;;;4918805;29;20035;-83
2023/07/31 07:30:36;;;;;;;16.75;8.27;;;27.60;83.90;;;;;;4918438;29;20028;-83
2023/07/31 07:33:04;;;;;;;125.30;29.40;;;27.60;82.70;;;;;;4935396;29;20106;-81
2023/07/31 07:35:29;;;;;;;34.55;13.95;;;27.60;83.40;;;;;;4940570;29;20588;-81
2023/07/31 07:37:56;;;;;;;44.77;11.20;;;27.60;84.10;;;;;;4933267;29;20028;-81
2023/07/31 07:40:22;;;;;;;;;;;27.60;83.30;;;;;;4927278;29;20111;-80
2023/07/31 07:42:48;;;;;;;95.68;17.73;;;27.60;81.30;;;;;;4937474;29;19963;-80
2023/07/31 07:45:13;;;;;;;21.23;8.13;;;27.60;82.10;;;;;;4942157;29;20039;-81
2023/07/31 07:47:41;;;;;;;12.07;7.63;;;27.70;82.20;;;;;;4938634;29;20031;-81
2023/07/31 07:50:07;;;;;;;7.78;6.95;;;27.70;82.00;;;;;;4942525;29;20764;-80
2023/07/31 07:52:33;;;;;;;7.75;6.70;;;27.70;81.50;;;;;;4938323;29;20459;-84
2023/07/31 07:55:00;;;;;;;12.27;7.83;;;27.80;82.80;;;;;;4939152;29;20482;-80
2023/07/31 07:57:26;;;;;;;;;;;27.80;81.70;;;;;;4938612;29;20058;-80
2023/07/31 07:59:52;;;;;;;17.65;7.22;;;27.90;80.70;;;;;;4925355;29;20297;-80
2023/07/31 08:02:18;;;;;;;65.67;12.63;;;27.90;81.00;;;;;;4955250;29;20031;-81
2023/07/31 08:04:43;;;;;;;10.90;6.53;;;28.00;80.80;;;;;;4949728;29;20050;-80
2023/07/31 08:07:12;;;;;;;7.37;6.27;;;28.00;80.30;;;;;;4942863;29;20032;-80
2023/07/31 08:09:38;;;;;;;15.73;7.65;;;27.90;80.40;;;;;;4934283;28;20292;-79
2023/07/31 08:12:05;;;;;;;11.10;7.37;;;27.90;80.10;;;;;;4930781;29;20040;-80
2023/07/31 08:14:31;;;;;;;33.25;13.27;;;27.90;80.50;;;;;;4930580;29;20282;-81
2023/07/31 08:16:57;;;;;;;87.60;27.50;;;27.90;81.40;;;;;;4932866;29;20107;-80
2023/07/31 08:19:23;;;;;;;27.43;13.80;;;27.90;82.40;;;;;;4935944;29;20027;-79
2023/07/31 08:21:49;;;;;;;21.60;9.73;;;27.90;81.50;;;;;;4918916;29;20039;-79
2023/07/31 08:24:14;;;;;;;7.83;5.80;;;27.90;81.70;;;;;;4942907;29;20358;-80
2023/07/31 08:26:40;;;;;;;9.70;4.83;;;27.90;80.60;;;;;;4940972;29;20119;-80
2023/07/31 08:29:06;;;;;;;10.37;4.30;;;27.90;80.90;;;;;;4932712;29;20027;-80
2023/07/31 08:31:32;;;;;;;10.57;5.30;;;27.80;80.20;;;;;;4938935;29;20030;-79
2023/07/31 08:33:58;;;;;;;5.32;3.75;;;27.90;79.50;;;;;;4928359;29;20562;-79
2023/07/31 08:36:24;;;;;;;10.40;3.57;;;27.90;80.10;;;;;;4926649;29;20193;-80
2023/07/31 08:38:50;;;;;;;19.17;7.43;;;27.90;78.50;;;;;;4936031;29;20335;-80
2023/07/31 08:41:18;;;;;;;4.22;3.47;;;27.90;78.20;;;;;;4942190;29;20074;-79
2023/07/31 08:43:49;;;;;;;6.03;2.55;;;27.90;77.00;;;;;;4938237;29;20062;-80
2023/07/31 08:46:15;;;;;;;8.48;4.57;;;28.00;77.80;;;;;;4918074;29;20171;-80
2023/07/31 08:48:47;;;;;;;14.00;3.53;;;28.10;77.70;;;;;;4939094;29;20055;-80
2023/07/31 08:51:14;;;;;;;12.35;4.15;;;28.10;77.40;;;;;;4920068;29;20047;-81
2023/07/31 08:53:40;;;;;;;16.55;3.92;;;28.20;77.20;;;;;;4932632;29;20039;-80
2023/07/31 08:56:07;;;;;;;150.00;12.05;;;28.20;77.00;;;;;;4945010;29;20023;-80
2023/07/31 08:58:35;;;;;;;6.18;3.30;;;28.30;78.00;;;;;;4939620;29;20031;-80
2023/07/31 09:01:05;;;;;;;5.15;3.10;;;28.30;78.00;;;;;;4946137;29;20032;-81
2023/07/31 09:03:35;;;;;;;2.90;2.60;;;28.40;77.60;;;;;;4941248;29;20528;-82
2023/07/31 09:06:04;;;;;;;2.88;2.50;;;28.40;76.40;;;;;;4952726;29;20040;-83
2023/07/31 09:08:32;;;;;;;3.45;3.13;;;28.50;75.60;;;;;;4927489;29;20054;-83
2023/07/31 09:11:04;;;;;;;4.95;2.88;;;28.60;74.90;;;;;;4957826;29;20039;-83
2023/07/31 09:13:32;;;;;;;4.97;3.28;;;28.70;75.80;;;;;;4948236;29;20032;-84
2023/07/31 09:15:58;;;;;;;2.95;2.25;;;28.70;75.60;;;;;;4927179;29;20024;-83
2023/07/31 09:18:24;;;;;;;3.95;2.28;;;28.80;75.00;;;;;;4953181;28;20035;-84
2023/07/31 09:21:02;;;;;;;3.73;2.77;;;28.90;74.80;;;;;;4935914;29;20080;-84
2023/07/31 09:23:41;;;;;;;6.05;3.22;;;29.00;74.80;;;;;;4930441;29;20302;-84
2023/07/31 09:26:06;;;;;;;3.45;2.20;;;29.00;73.80;;;;;;4934528;29;20045;-82
2023/07/31 09:28:32;;;;;;;5.13;2.60;;;29.00;74.50;;;;;;4941688;29;20028;-83
2023/07/31 09:30:58;;;;;;;3.40;2.73;;;29.10;74.20;;;;;;4946332;28;20083;-82
2023/07/31 09:33:24;;;;;;;3.40;2.50;;;29.20;73.50;;;;;;4941766;29;20028;-82
2023/07/31 09:35:49;;;;;;;4.63;2.50;;;29.30;72.30;;;;;;4956813;29;20279;-83
2023/07/31 09:38:16;;;;;;;3.57;2.30;;;29.30;72.90;;;;;;4945057;29;20024;-83
2023/07/31 09:40:45;;;;;;;2.75;2.13;;;29.30;72.00;;;;;;4941346;29;20039;-82
2023/07/31 09:43:18;;;;;;;2.75;2.53;;;29.40;72.30;;;;;;4932708;29;20039;-82
2023/07/31 09:45:45;;;;;;;3.47;2.80;;;29.50;72.50;;;;;;4939973;29;20078;-81
2023/07/31 09:48:15;;;;;;;2.60;2.28;;;29.60;72.80;;;;;;4940296;29;20039;-82
2023/07/31 09:50:43;;;;;;;3.85;2.53;;;29.60;72.30;;;;;;4930614;29;20384;-84
2023/07/31 09:53:10;;;;;;;5.22;2.65;;;29.70;73.30;;;;;;4934418;29;20061;-82
2023/07/31 09:55:36;;;;;;;;;;;29.70;70.30;;;;;;4941609;29;20479;-84
2023/07/31 09:58:10;;;;;;;11.65;2.83;;;29.70;70.70;;;;;;4937507;29;19921;-82
2023/07/31 10:00:37;;;;;;;2.47;1.85;;;29.70;72.70;;;;;;4942845;29;20024;-80
2023/07/31 10:03:06;;;;;;;2.67;2.22;;;29.70;71.40;;;;;;4944891;28;20028;-81
2023/07/31 10:05:45;;;;;;;2.13;1.92;;;29.80;67.70;;;;;;4948490;28;20078;-83
2023/07/31 10:08:14;;;;;;;4.93;2.10;;;29.80;68.70;;;;;;4943509;29;20027;-83
2023/07/31 10:10:45;;;;;;;2.03;1.60;;;29.90;68.90;;;;;;4940638;29;20024;-83
2023/07/31 10:13:12;;;;;;;2.53;1.95;;;30.00;66.20;;;;;;4935326;29;20513;-83
2023/07/31 10:15:38;;;;;;;2.17;1.50;;;30.00;66.70;;;;;;4930351;29;20028;-82
2023/07/31 10:18:06;;;;;;;2.35;1.60;;;30.10;66.30;;;;;;4953980;28;20028;-83
2023/07/31 10:20:32;;;;;;;3.22;1.90;;;30.20;66.10;;;;;;4938904;29;20142;-82
2023/07/31 10:22:59;;;;;;;3.72;1.75;;;30.30;65.80;;;;;;4948844;28;20073;-83
2023/07/31 10:25:25;;;;;;;;;;;30.30;66.10;;;;;;4941386;29;20786;-83
2023/07/31 10:27:53;;;;;;;2.05;1.60;;;30.40;66.30;;;;;;4935519;29;19950;-82
2023/07/31 10:30:24;;;;;;;3.17;1.90;;;30.50;65.90;;;;;;4939746;29;20027;-86
2023/07/31 10:32:52;;;;;;;1.83;1.50;;;30.50;65.70;;;;;;4945148;29;20151;-83
2023/07/31 10:35:19;;;;;;;2.17;1.50;;;30.60;64.90;;;;;;4965182;28;20117;-82
2023/07/31 10:37:45;;;;;;;2.10;1.70;;;30.50;65.40;;;;;;4945581;29;20115;-83
2023/07/31 10:40:25;;;;;;;4.72;1.80;;;30.40;64.70;;;;;;4928256;29;20035;-83
2023/07/31 10:42:52;;;;;;;3.08;1.52;;;30.50;65.60;;;;;;4928287;29;20047;-82
2023/07/31 10:45:37;;;;;;;2.33;1.77;;;30.50;65.50;;;;;;4954714;28;20090;-82
2023/07/31 10:48:03;;;;;;;2.15;1.75;;;30.50;63.10;;;;;;4960702;28;20039;-83
2023/07/31 10:50:51;;;;;;;2.08;1.70;;;30.60;65.30;;;;;;4951335;29;20035;-82
2023/07/31 10:53:23;;;;;;;3.95;1.83;;;30.70;66.00;;;;;;4957513;29;20059;-83
2023/07/31 10:55:51;;;;;;;1.73;1.63;;;30.80;62.30;;;;;;4937720;29;20529;-83
2023/07/31 10:58:20;;;;;;;2.20;2.00;;;30.80;63.30;;;;;;4935692;29;20083;-83
2023/07/31 11:00:46;;;;;;;1.92;1.58;;;30.80;63.70;;;;;;4939781;29;20032;-83
2023/07/31 11:03:21;;;;;;;2.67;1.60;;;30.70;63.90;;;;;;4954505;29;20035;-83
2023/07/31 11:05:47;;;;;;;2.97;1.88;;;30.70;63.00;;;;;;4942051;29;20032;-83
2023/07/31 11:08:20;;;;;;;1.70;1.50;;;30.80;64.10;;;;;;4950307;29;20039;-83
2023/07/31 11:10:47;;;;;;;2.63;1.70;;;30.80;62.80;;;;;;4957907;28;20279;-83
2023/07/31 11:13:14;;;;;;;1.98;1.80;;;30.90;63.20;;;;;;4946855;29;20043;-83
2023/07/31 11:15:40;;;;;;;3.38;1.63;;;31.00;63.50;;;;;;4950738;28;20123;-83
2023/07/31 11:18:07;;;;;;;1.65;1.52;;;31.10;64.20;;;;;;4952029;29;20505;-82
2023/07/31 11:21:02;;;;;;;2.70;1.60;;;31.20;63.10;;;;;;4952911;29;20110;-82
2023/07/31 11:23:28;;;;;;;4.28;1.50;;;31.40;63.80;;;;;;4954187;29;20039;-83
2023/07/31 11:26:31;;;;;;;3.97;2.17;;;31.40;63.10;;;;;;4956407;28;20031;-83
2023/07/31 11:28:57;;;;;;;1.85;1.30;;;31.50;62.50;;;;;;4949623;29;20059;-84
2023/07/31 11:31:23;;;;;;;3.53;1.60;;;31.60;60.70;;;;;;4948722;29;20082;-83
2023/07/31 11:33:49;;;;;;;3.33;1.80;;;31.60;62.50;;;;;;4938930;29;20082;-85
2023/07/31 11:36:19;;;;;;;109.55;75.90;;;31.80;62.90;;;;;;4951813;29;20026;-84
2023/07/31 11:38:45;;;;;;;32.45;29.30;;;31.90;63.70;;;;;;4938281;29;20034;-84
2023/07/31 11:41:14;;;;;;;2.22;2.03;;;32.00;61.60;;;;;;4953026;29;20043;-84
2023/07/31 11:43:40;;;;;;;1.92;1.70;;;32.00;61.20;;;;;;4920738;29;20028;-84
2023/07/31 11:46:06;;;;;;;1.70;1.35;;;31.90;61.80;;;;;;4920641;29;20035;-84
2023/07/31 11:48:35;;;;;;;2.08;1.60;;;32.00;61.90;;;;;;4931859;29;20531;-84
2023/07/31 11:51:03;;;;;;;2.80;1.30;;;32.00;62.20;;;;;;4920780;29;20059;-84
2023/07/31 11:53:32;;;;;;;4.05;1.33;;;32.10;60.30;;;;;;4921091;29;20024;-85
2023/07/31 11:56:04;;;;;;;2.53;1.30;;;32.20;60.70;;;;;;4901709;29;20036;-84
2023/07/31 11:58:31;;;;;;;1.85;1.33;;;32.30;58.10;;;;;;4927063;29;20055;-84
2023/07/31 12:00:58;;;;;;;1.60;1.50;;;32.40;59.40;;;;;;4957682;28;20032;-84
2023/07/31 12:03:24;;;;;;;1.90;1.35;;;32.60;59.80;;;;;;4956132;29;20409;-84
2023/07/31 12:05:50;;;;;;;1.90;1.73;;;32.70;58.20;;;;;;4956531;29;20028;-84
2023/07/31 12:08:16;;;;;;;2.45;1.73;;;32.70;59.20;;;;;;4958932;29;20401;-83
2023/07/31 12:10:42;;;;;;;2.17;1.85;;;32.70;58.30;;;;;;4973875;28;20449;-84
2023/07/31 12:13:13;;;;;;;2.30;1.30;;;32.70;59.70;;;;;;4959222;29;20078;-84
2023/07/31 12:15:43;;;;;;;2.95;1.65;;;32.80;57.50;;;;;;4956973;29;20161;-85
2023/07/31 12:18:14;;;;;;;2.00;1.80;;;32.80;57.90;;;;;;4954270;29;20520;-83
2023/07/31 12:20:55;;;;;;;1.80;1.25;;;32.90;57.00;;;;;;4932649;29;20031;-84
2023/07/31 12:23:32;;;;;;;1.73;1.60;;;33.00;57.00;;;;;;4976141;23;20134;-83
2023/07/31 12:26:05;;;;;;;;;;;33.00;57.80;;;;;;4921349;29;20035;-82
2023/07/31 12:28:54;;;;;;;2.08;1.70;;;33.10;57.10;;;;;;4936366;29;19917;-83
2023/07/31 12:31:27;;;;;;;2.60;1.63;;;33.10;57.30;;;;;;4938027;29;20024;-83
2023/07/31 12:33:53;;;;;;;3.63;1.65;;;33.20;57.10;;;;;;4918914;29;20467;-81
2023/07/31 12:36:23;;;;;;;2.17;1.52;;;33.40;56.80;;;;;;4918554;29;20060;-81
2023/07/31 12:38:50;;;;;;;2.20;1.80;;;33.40;55.90;;;;;;4921302;29;20051;-85
2023/07/31 12:41:17;;;;;;;1.88;1.77;;;33.40;57.50;;;;;;4919462;29;20036;-84